createdAt,value
2023-02-14T00:02:18.609Z,98142.59
2023-02-14T00:04:50.302Z,98142.00
2023-02-14T00:07:20.359Z,98134.16
2023-02-14T00:09:48.967Z,98136.59
2023-02-14T00:12:17.344Z,98139.13
2023-02-14T00:15:03.255Z,98142.50
2023-02-14T00:17:31.863Z,98127.56
2023-02-14T00:20:00.413Z,98121.31
2023-02-14T00:22:30.394Z,98119.78
2023-02-14T00:24:58.838Z,98112.69
2023-02-14T00:27:27.331Z,98109.09
2023-02-14T00:29:58.209Z,98121.31
2023-02-14T00:32:26.652Z,98118.94
2023-02-14T00:34:55.020Z,98123.28
2023-02-14T00:37:23.413Z,98121.41
2023-02-14T00:39:53.241Z,98118.03
2023-02-14T00:42:21.544Z,98127.56
2023-02-14T00:44:49.911Z,98126.94
2023-02-14T00:47:18.355Z,98123.56
2023-02-14T00:49:46.709Z,98119.34
2023-02-14T00:52:15.230Z,98122.13
2023-02-14T00:54:43.609Z,98130.91
2023-02-14T00:57:13.317Z,98118.75
2023-02-14T00:59:41.676Z,98120.44
2023-02-14T01:02:10.176Z,98122.03
2023-02-14T01:04:38.551Z,98122.13
2023-02-14T01:07:06.828Z,98119.69
2023-02-14T01:09:35.320Z,98131.81
2023-02-14T01:12:03.648Z,98131.00
2023-02-14T01:14:33.403Z,98130.91
2023-02-14T01:17:01.766Z,98132.44
2023-02-14T01:19:30.072Z,98128.13
2023-02-14T01:21:58.401Z,98139.53
2023-02-14T01:24:26.854Z,98149.16
2023-02-14T01:26:55.215Z,98153.53
2023-02-14T01:29:23.547Z,98154.41
2023-02-14T01:31:54.964Z,98148.47
2023-02-14T01:34:23.327Z,98148.69
2023-02-14T01:36:51.646Z,98158.41
2023-02-14T01:39:19.960Z,98146.25
2023-02-14T01:41:49.566Z,98161.19
2023-02-14T01:44:55.022Z,98171.81
2023-02-14T01:47:26.712Z,98156.19
2023-02-14T01:49:58.871Z,98155.34
2023-02-14T01:52:31.713Z,98158.13
2023-02-14T01:55:03.404Z,98148.66
2023-02-14T01:57:37.278Z,98143.66
2023-02-14T02:00:26.546Z,98146.59
2023-02-14T02:02:57.179Z,98143.13
2023-02-14T02:05:25.819Z,98136.13
2023-02-14T02:07:57.472Z,98147.38
2023-02-14T02:10:26.043Z,98144.06
2023-02-14T02:12:56.079Z,98133.66
2023-02-14T02:15:27.637Z,98133.84
2023-02-14T02:18:04.189Z,98132.84
2023-02-14T02:20:52.120Z,98130.22
2023-02-14T02:23:48.989Z,98125.88
2023-02-14T02:27:04.627Z,98124.03
2023-02-14T02:30:14.196Z,98126.66
2023-02-14T02:33:20.525Z,98126.13
2023-02-14T02:36:04.745Z,98127.06
2023-02-14T02:38:54.986Z,98131.31
2023-02-14T02:41:35.688Z,98125.88
2023-02-14T02:44:18.816Z,98125.06
2023-02-14T02:46:54.167Z,98114.66
2023-02-14T02:49:50.716Z,98123.44
2023-02-14T02:52:45.572Z,98117.28
2023-02-14T02:55:21.655Z,98118.38
2023-02-14T02:57:51.796Z,98126.28
2023-02-14T03:00:22.899Z,98122.97
2023-02-14T03:03:11.841Z,98114.47
2023-02-14T03:05:41.004Z,98107.59
2023-02-14T03:08:10.722Z,98111.16
2023-02-14T03:10:40.668Z,98099.63
2023-02-14T03:13:39.855Z,98100.53
2023-02-14T03:16:33.753Z,98106.44
2023-02-14T03:20:04.008Z,98109.06
2023-02-14T03:22:44.712Z,98111.09
2023-02-14T03:25:25.426Z,98104.91
2023-02-14T03:27:58.574Z,98102.91
2023-02-14T03:30:40.351Z,98108.28
2023-02-14T03:33:16.619Z,98107.09
2023-02-14T03:35:53.361Z,98106.38
2023-02-14T03:38:26.883Z,98105.63
2023-02-14T03:41:00.615Z,98104.84
2023-02-14T03:43:33.026Z,98113.78
2023-02-14T03:46:07.526Z,98118.00
2023-02-14T03:48:38.038Z,98116.00
2023-02-14T03:51:10.504Z,98105.88
2023-02-14T03:53:44.893Z,98116.91
2023-02-14T03:56:18.578Z,98116.06
2023-02-14T03:58:51.754Z,98111.63
2023-02-14T04:01:25.464Z,98109.53
2023-02-14T04:03:56.911Z,98105.09
2023-02-14T04:06:25.394Z,98106.63
2023-02-14T04:08:53.838Z,98104.59
2023-02-14T04:11:35.605Z,98104.47
2023-02-14T04:14:04.194Z,98097.38
2023-02-14T04:16:53.810Z,98103.06
2023-02-14T04:19:24.112Z,98104.31
2023-02-14T04:21:53.004Z,98106.16
2023-02-14T04:24:21.379Z,98105.56
2023-02-14T04:27:09.926Z,98104.59
2023-02-14T04:29:39.740Z,98106.06
2023-02-14T04:32:10.421Z,98102.63
2023-02-14T04:34:39.698Z,98096.38
2023-02-14T04:37:08.865Z,98103.91
2023-02-14T04:39:37.607Z,98095.09
2023-02-14T04:42:07.809Z,98094.06
2023-02-14T04:44:38.170Z,98091.41
2023-02-14T04:47:07.383Z,98087.00
2023-02-14T04:49:36.344Z,98088.84
2023-02-14T04:52:05.072Z,98089.69
2023-02-14T04:54:34.401Z,98096.63
2023-02-14T04:57:02.726Z,98094.22
2023-02-14T04:59:32.500Z,98089.09
2023-02-14T05:02:00.840Z,98082.84
2023-02-14T05:04:29.168Z,98088.00
2023-02-14T05:06:57.490Z,98090.78
2023-02-14T05:09:25.895Z,98090.00
2023-02-14T05:11:54.620Z,98089.09
2023-02-14T05:14:23.238Z,98085.47
2023-02-14T05:16:53.155Z,98085.41
2023-02-14T05:19:21.588Z,98085.47
2023-02-14T05:21:49.952Z,98086.31
2023-02-14T05:24:18.572Z,98092.47
2023-02-14T05:26:46.939Z,98088.00
2023-02-14T05:29:15.235Z,98082.78
2023-02-14T05:31:43.855Z,98091.72
2023-02-14T05:34:13.662Z,98089.00
2023-02-14T05:36:42.027Z,98079.47
2023-02-14T05:39:10.838Z,98083.69
2023-02-14T05:44:06.698Z,98092.41
2023-02-14T05:46:35.003Z,98088.16
2023-02-14T05:49:03.707Z,98096.06
2023-02-14T05:51:33.435Z,98086.63
2023-02-14T05:54:01.806Z,98083.19
2023-02-14T05:56:30.220Z,98093.56
2023-02-14T05:58:58.541Z,98088.41
2023-02-14T06:01:26.911Z,98091.84
2023-02-14T06:03:55.286Z,98091.78
2023-02-14T06:06:23.623Z,98101.41
2023-02-14T06:08:53.324Z,98096.16
2023-02-14T06:11:21.719Z,98096.44
2023-02-14T06:13:50.058Z,98099.25
2023-02-14T06:16:18.450Z,98101.03
2023-02-14T06:18:46.847Z,98098.53
2023-02-14T06:21:15.845Z,98104.84
2023-02-14T06:23:44.216Z,98102.38
2023-02-14T06:26:13.933Z,98095.41
2023-02-14T06:28:42.833Z,98101.53
2023-02-14T06:31:17.070Z,98103.38
2023-02-14T06:33:45.599Z,98101.00
2023-02-14T06:36:14.088Z,98097.63
2023-02-14T06:38:42.676Z,98089.94
2023-02-14T06:41:15.032Z,98091.63
2023-02-14T06:43:43.771Z,98092.47
2023-02-14T06:46:12.478Z,98104.75
2023-02-14T06:48:40.863Z,98103.84
2023-02-14T06:51:09.235Z,98107.00
2023-02-14T06:53:37.853Z,98107.78
2023-02-14T06:56:06.990Z,98111.91
2023-02-14T06:58:36.711Z,98113.53
2023-02-14T07:01:05.569Z,98107.41
2023-02-14T07:03:34.030Z,98114.28
2023-02-14T07:06:02.714Z,98118.94
2023-02-14T07:08:31.070Z,98117.22
2023-02-14T07:11:00.006Z,98115.44
2023-02-14T07:13:28.558Z,98117.84
2023-02-14T07:15:58.363Z,98109.84
2023-02-14T07:18:26.824Z,98104.47
2023-02-14T07:20:55.153Z,98102.47
2023-02-14T07:23:23.528Z,98107.47
2023-02-14T07:25:51.868Z,98104.84
2023-02-14T07:28:20.146Z,98102.25
2023-02-14T07:30:48.693Z,98096.94
2023-02-14T07:33:18.434Z,98102.25
2023-02-14T07:35:46.747Z,98103.06
2023-02-14T07:38:15.046Z,98097.09
2023-02-14T07:40:43.407Z,98092.88
2023-02-14T07:43:12.012Z,98095.53
2023-02-14T07:45:40.270Z,98094.72
2023-02-14T07:48:08.689Z,98091.00
2023-02-14T07:50:38.450Z,98082.22
2023-02-14T07:53:08.550Z,98086.56
2023-02-14T07:55:36.886Z,98082.09
2023-02-14T07:58:05.163Z,98091.53
2023-02-14T08:00:33.665Z,98091.41
2023-02-14T08:03:02.018Z,98086.78
2023-02-14T08:05:31.005Z,98085.78
2023-02-14T08:08:00.720Z,98085.69
2023-02-14T08:10:29.133Z,98079.53
2023-02-14T08:12:59.856Z,98094.63
2023-02-14T08:15:47.264Z,98085.31
2023-02-14T08:18:17.512Z,98081.06
2023-02-14T08:20:46.193Z,98086.22
2023-02-14T08:23:16.568Z,98078.41
2023-02-14T08:25:44.869Z,98075.16
2023-02-14T08:28:14.902Z,98075.78
2023-02-14T08:30:44.691Z,98070.22
2023-02-14T08:33:13.452Z,98059.94
2023-02-14T08:35:41.854Z,98061.69
2023-02-14T08:38:10.827Z,98065.94
2023-02-14T08:40:41.570Z,98064.09
2023-02-14T08:43:10.587Z,98064.69
2023-02-14T08:45:39.371Z,98060.75
2023-02-14T08:48:09.893Z,98060.34
2023-02-14T08:50:38.837Z,98054.53
2023-02-14T08:53:09.460Z,98056.16
2023-02-14T08:55:38.793Z,98057.50
2023-02-14T08:58:09.242Z,98057.72
2023-02-14T09:00:37.690Z,98054.06
2023-02-14T09:03:06.167Z,98050.63
2023-02-14T09:05:34.932Z,98051.31
2023-02-14T09:08:03.413Z,98045.81
2023-02-14T09:10:32.074Z,98049.97
2023-02-14T09:13:00.408Z,98046.81
2023-02-14T09:15:30.132Z,98047.00
2023-02-14T09:17:58.534Z,98041.06
2023-02-14T09:20:27.053Z,98046.22
2023-02-14T09:22:56.992Z,98038.44
2023-02-14T09:25:25.363Z,98046.31
2023-02-14T09:27:53.708Z,98048.00
2023-02-14T09:30:22.109Z,98039.13
2023-02-14T09:32:54.036Z,98037.78
2023-02-14T09:35:22.405Z,98033.19
2023-02-14T09:37:50.730Z,98031.66
2023-02-14T09:40:20.535Z,98033.56
2023-02-14T09:43:01.956Z,98025.25
2023-02-14T09:45:34.122Z,98038.75
2023-02-14T09:48:08.338Z,98036.34
2023-02-14T09:50:41.212Z,98038.25
2023-02-14T09:53:20.090Z,98028.72
2023-02-14T09:55:53.514Z,98034.63
2023-02-14T09:58:27.028Z,98029.47
2023-02-14T10:01:03.370Z,98040.84
2023-02-14T10:03:49.073Z,98028.34
2023-02-14T10:06:34.989Z,98035.16
2023-02-14T10:09:13.131Z,98031.09
2023-02-14T10:11:44.795Z,98029.88
2023-02-14T10:14:17.113Z,98027.72
2023-02-14T10:16:50.263Z,98025.97
2023-02-14T10:19:24.902Z,98023.72
2023-02-14T10:21:56.316Z,98019.63
2023-02-14T10:24:28.798Z,98019.13
2023-02-14T10:27:03.186Z,98023.03
2023-02-14T10:29:31.547Z,98015.56
2023-02-14T10:32:02.121Z,98014.97
2023-02-14T10:34:42.760Z,98016.91
2023-02-14T10:37:29.809Z,98012.47
2023-02-14T10:40:10.716Z,98008.06
2023-02-14T10:42:51.419Z,98010.78
2023-02-14T10:45:27.240Z,98002.06
2023-02-14T10:47:59.820Z,98011.44
2023-02-14T10:50:38.410Z,98004.91
2023-02-14T10:53:20.960Z,97999.50
2023-02-14T10:55:57.055Z,97998.75
2023-02-14T10:58:28.737Z,97993.03
2023-02-14T11:01:02.854Z,97982.06
2023-02-14T11:03:31.541Z,97987.72
2023-02-14T11:06:01.360Z,97978.63
2023-02-14T11:08:34.317Z,97972.31
2023-02-14T11:11:11.914Z,97963.97
2023-02-14T11:13:41.105Z,97971.81
2023-02-14T11:16:11.566Z,97957.84
2023-02-14T11:18:41.455Z,97963.00
2023-02-14T11:21:13.242Z,97963.16
2023-02-14T11:23:43.488Z,97954.78
2023-02-14T11:26:21.518Z,97948.41
2023-02-14T11:28:53.741Z,97941.97
2023-02-14T11:31:31.185Z,97946.06
2023-02-14T11:34:01.936Z,97936.75
2023-02-14T11:36:39.815Z,97934.34
2023-02-14T11:39:24.890Z,97931.22
2023-02-14T11:41:55.492Z,97925.34
2023-02-14T11:44:26.111Z,97921.97
2023-02-14T11:46:56.868Z,97927.97
2023-02-14T11:49:33.868Z,97912.69
2023-02-14T11:52:11.481Z,97918.94
2023-02-14T11:54:42.316Z,97918.06
2023-02-14T11:57:15.697Z,97912.28
2023-02-14T11:59:46.409Z,97910.22
2023-02-14T12:02:31.953Z,97908.06
2023-02-14T12:05:04.322Z,97902.03
2023-02-14T12:07:37.563Z,97906.19
2023-02-14T12:10:19.280Z,97896.91
2023-02-14T12:12:53.382Z,97889.69
2023-02-14T12:15:29.545Z,97891.94
2023-02-14T12:18:10.454Z,97893.69
2023-02-14T12:20:43.110Z,97891.03
2023-02-14T12:23:19.466Z,97891.38
2023-02-14T12:25:55.623Z,97884.47
2023-02-14T12:28:30.773Z,97885.75
2023-02-14T12:30:59.941Z,97879.22
2023-02-14T12:33:28.571Z,97871.47
2023-02-14T12:36:10.255Z,97863.94
2023-02-14T12:38:52.456Z,97871.91
2023-02-14T12:41:41.754Z,97869.00
2023-02-14T12:44:17.664Z,97866.22
2023-02-14T12:47:09.429Z,97864.84
2023-02-14T12:49:53.181Z,97861.78
2023-02-14T12:52:38.786Z,97856.09
2023-02-14T12:55:33.076Z,97854.88
2023-02-14T12:58:07.697Z,97854.03
2023-02-14T13:00:45.965Z,97847.38
2023-02-14T13:03:33.091Z,97836.75
2023-02-14T13:06:08.602Z,97833.28
2023-02-14T13:09:03.303Z,97830.38
2023-02-14T13:11:43.547Z,97828.81
2023-02-14T13:14:22.443Z,97824.53
2023-02-14T13:16:56.927Z,97826.75
2023-02-14T13:19:36.294Z,97823.16
2023-02-14T13:22:07.006Z,97825.13
2023-02-14T13:24:40.517Z,97822.03
2023-02-14T13:27:15.294Z,97820.50
2023-02-14T13:29:48.140Z,97825.38
2023-02-14T13:32:20.455Z,97822.88
2023-02-14T13:34:49.871Z,97816.31
2023-02-14T13:37:21.229Z,97814.22
2023-02-14T13:39:55.355Z,97813.53
2023-02-14T13:42:55.837Z,97805.16
2023-02-14T13:45:57.249Z,97802.25
2023-02-14T13:48:27.515Z,97809.81
2023-02-14T13:50:58.974Z,97807.53
2023-02-14T13:53:36.655Z,97805.44
2023-02-14T13:56:07.395Z,97803.94
2023-02-14T13:58:37.224Z,97802.25
2023-02-14T14:01:31.398Z,97800.28
2023-02-14T14:04:01.822Z,97795.53
2023-02-14T14:07:09.345Z,97793.56
2023-02-14T14:09:57.120Z,97792.75
2023-02-14T14:12:45.032Z,97788.25
2023-02-14T14:15:19.032Z,97790.78
2023-02-14T14:18:29.949Z,97789.66
2023-02-14T14:20:58.583Z,97789.81
2023-02-14T14:23:33.589Z,97786.16
2023-02-14T14:26:03.353Z,97790.19
2023-02-14T14:28:33.460Z,97783.25
2023-02-14T14:31:03.335Z,97774.28
2023-02-14T14:33:34.207Z,97777.03
2023-02-14T14:36:07.337Z,97772.56
2023-02-14T14:38:47.673Z,97772.09
2023-02-14T14:41:16.205Z,97769.66
2023-02-14T14:43:44.998Z,97765.13
2023-02-14T14:46:15.842Z,97762.44
2023-02-14T14:48:47.041Z,97759.56
2023-02-14T14:51:23.492Z,97758.69
2023-02-14T14:53:55.816Z,97756.94
2023-02-14T14:56:26.887Z,97761.22
2023-02-14T14:58:55.960Z,97767.03
2023-02-14T15:01:37.337Z,97764.84
2023-02-14T15:04:13.329Z,97764.63
2023-02-14T15:06:42.075Z,97762.72
2023-02-14T15:09:15.643Z,97755.28
2023-02-14T15:12:04.171Z,97757.25
2023-02-14T15:14:38.188Z,97755.81
2023-02-14T15:17:15.563Z,97754.91
2023-02-14T15:19:48.639Z,97758.97
2023-02-14T15:22:21.565Z,97763.97
2023-02-14T15:24:50.574Z,97773.19
2023-02-14T15:27:21.609Z,97761.50
2023-02-14T15:29:58.647Z,97759.25
2023-02-14T15:32:31.890Z,97762.00
2023-02-14T15:35:03.130Z,97764.66
2023-02-14T15:37:34.942Z,97761.28
2023-02-14T15:40:06.801Z,97760.19
2023-02-14T15:42:41.338Z,97757.34
2023-02-14T15:45:22.317Z,97750.22
2023-02-14T15:47:55.334Z,97755.50
2023-02-14T15:50:27.792Z,97762.28
2023-02-14T15:53:01.084Z,97751.91
2023-02-14T15:55:30.793Z,97757.88
2023-02-14T15:58:02.482Z,97753.09
2023-02-14T16:00:32.180Z,97751.91
2023-02-14T16:03:06.832Z,97750.91
2023-02-14T16:05:35.596Z,97750.75
2023-02-14T16:08:05.949Z,97752.63
2023-02-14T16:10:36.264Z,97752.69
2023-02-14T16:13:08.607Z,97753.56
2023-02-14T16:15:42.118Z,97751.56
2023-02-14T16:18:33.322Z,97752.22
2023-02-14T16:21:13.052Z,97753.34
2023-02-14T16:23:41.682Z,97754.38
2023-02-14T16:26:10.439Z,97755.50
2023-02-14T16:28:38.863Z,97758.28
2023-02-14T16:31:11.190Z,97761.94
2023-02-14T16:33:41.996Z,97760.13
2023-02-14T16:36:20.674Z,97766.03
2023-02-14T16:38:50.011Z,97766.75
2023-02-14T16:41:20.637Z,97764.72
2023-02-14T16:43:50.348Z,97771.44
2023-02-14T16:46:21.638Z,97772.84
2023-02-14T16:48:52.519Z,97775.25
2023-02-14T16:51:24.231Z,97773.22
2023-02-14T16:53:53.044Z,97780.72
2023-02-14T16:56:24.847Z,97774.28
2023-02-14T16:58:53.181Z,97785.16
2023-02-14T17:01:21.614Z,97784.69
2023-02-14T17:03:51.349Z,97785.13
2023-02-14T17:06:23.603Z,97782.97
2023-02-14T17:08:54.045Z,97795.78
2023-02-14T17:11:24.329Z,97795.25
2023-02-14T17:13:54.498Z,97785.81
2023-02-14T17:16:23.395Z,97791.28
2023-02-14T17:18:53.518Z,97796.41
2023-02-14T17:21:24.166Z,97792.78
2023-02-14T17:23:52.476Z,97788.72
2023-02-14T17:26:20.831Z,97796.81
2023-02-14T17:28:49.131Z,97798.84
2023-02-14T17:31:18.122Z,97800.38
2023-02-14T17:33:46.522Z,97797.22
2023-02-14T17:36:16.346Z,97801.13
2023-02-14T17:38:45.006Z,97797.16
2023-02-14T17:41:14.850Z,97796.88
2023-02-14T17:43:43.707Z,97802.59
2023-02-14T17:46:14.233Z,97798.81
2023-02-14T17:48:45.358Z,97802.94
2023-02-14T17:51:14.858Z,97802.44
2023-02-14T17:53:44.758Z,97803.69
2023-02-14T17:56:17.845Z,97803.31
2023-02-14T17:58:47.747Z,97802.69
2023-02-14T18:01:18.200Z,97796.38
2023-02-14T18:03:47.296Z,97803.84
2023-02-14T18:06:16.316Z,97799.75
2023-02-14T18:08:49.341Z,97798.09
2023-02-14T18:11:19.439Z,97797.16
2023-02-14T18:13:48.444Z,97787.34
2023-02-14T18:16:18.671Z,97794.72
2023-02-14T18:18:47.220Z,97797.00
2023-02-14T18:21:18.922Z,97793.41
2023-02-14T18:23:48.635Z,97800.03
2023-02-14T18:26:18.096Z,97799.28
2023-02-14T18:28:46.962Z,97804.00
2023-02-14T18:31:18.053Z,97798.19
2023-02-14T18:33:47.604Z,97798.59
2023-02-14T18:36:18.023Z,97793.56
2023-02-14T18:38:49.577Z,97804.44
2023-02-14T18:41:19.705Z,97808.63
2023-02-14T18:43:49.147Z,97805.75
2023-02-14T18:46:19.467Z,97799.13
2023-02-14T18:48:47.945Z,97801.22
2023-02-14T18:51:19.548Z,97797.22
2023-02-14T18:53:52.148Z,97797.78
2023-02-14T18:56:24.024Z,97798.59
2023-02-14T18:58:56.256Z,97805.78
2023-02-14T19:01:28.695Z,97797.94
2023-02-14T19:03:59.574Z,97803.34
2023-02-14T19:06:29.469Z,97804.56
2023-02-14T19:08:59.532Z,97808.53
2023-02-14T19:11:31.725Z,97803.56
2023-02-14T19:14:02.907Z,97807.41
2023-02-14T19:16:33.527Z,97802.72
2023-02-14T19:19:02.666Z,97804.91
2023-02-14T19:21:33.658Z,97809.47
2023-02-14T19:24:06.866Z,97805.84
2023-02-14T19:26:40.166Z,97801.72
2023-02-14T19:29:10.937Z,97802.84
2023-02-14T19:31:41.423Z,97799.66
2023-02-14T19:34:17.027Z,97799.09
2023-02-14T19:36:45.714Z,97799.19
2023-02-14T19:39:16.221Z,97806.03
2023-02-14T19:41:44.571Z,97802.28
2023-02-14T19:44:14.788Z,97803.22
2023-02-14T19:46:43.863Z,97802.09
2023-02-14T19:49:15.124Z,97802.19
2023-02-14T19:51:43.879Z,97800.31
2023-02-14T19:54:13.330Z,97805.84
2023-02-14T19:56:45.207Z,97801.59
2023-02-14T19:59:19.654Z,97805.25
2023-02-14T20:01:49.837Z,97806.22
2023-02-14T20:04:20.432Z,97799.19
2023-02-14T20:06:49.745Z,97797.56
2023-02-14T20:09:18.642Z,97801.88
2023-02-14T20:11:50.287Z,97794.69
2023-02-14T20:14:19.843Z,97798.22
2023-02-14T20:16:49.006Z,97801.88
2023-02-14T20:19:19.761Z,97800.97
2023-02-14T20:21:49.966Z,97796.66
2023-02-14T20:24:21.304Z,97798.59
2023-02-14T20:26:52.890Z,97795.41
2023-02-14T20:29:22.862Z,97792.72
2023-02-14T20:31:52.783Z,97784.94
2023-02-14T20:34:22.252Z,97791.13
2023-02-14T20:36:53.268Z,97798.97
2023-02-14T20:39:23.287Z,97788.88
2023-02-14T20:41:54.048Z,97787.25
2023-02-14T20:44:22.889Z,97783.91
2023-02-14T20:46:54.144Z,97786.88
2023-02-14T20:49:24.065Z,97793.44
2023-02-14T20:51:53.928Z,97782.75
2023-02-14T20:54:24.335Z,97783.72
2023-02-14T20:56:54.191Z,97786.97
2023-02-14T20:59:26.879Z,97787.84
2023-02-14T21:01:55.907Z,97782.47
2023-02-14T21:04:24.670Z,97779.97
2023-02-14T21:06:57.694Z,97776.59
2023-02-14T21:09:26.131Z,97775.66
2023-02-14T21:11:55.924Z,97770.34
2023-02-14T21:14:24.295Z,97766.78
2023-02-14T21:16:52.613Z,97763.41
2023-02-14T21:19:20.963Z,97762.56
2023-02-14T21:21:49.348Z,97765.09
2023-02-14T21:24:18.054Z,97756.31
2023-02-14T21:26:46.572Z,97754.72
2023-02-14T21:29:16.593Z,97750.69
2023-02-14T21:31:45.032Z,97750.97
2023-02-14T21:34:16.244Z,97753.66
2023-02-14T21:36:44.617Z,97751.22
2023-02-14T21:39:13.041Z,97745.44
2023-02-14T21:41:41.428Z,97745.69
2023-02-14T21:44:10.399Z,97744.84
2023-02-14T21:46:41.024Z,97740.72
2023-02-14T21:49:27.033Z,97734.72
2023-02-14T21:51:55.363Z,97733.53
2023-02-14T21:54:23.738Z,97722.69
2023-02-14T21:56:52.124Z,97723.53
2023-02-14T21:59:20.489Z,97728.50
2023-02-14T22:01:50.222Z,97725.03
2023-02-14T22:04:18.630Z,97723.53
2023-02-14T22:06:47.082Z,97716.81
2023-02-14T22:09:17.455Z,97712.59
2023-02-14T22:11:47.569Z,97710.16
2023-02-14T22:14:16.444Z,97714.19
2023-02-14T22:16:44.823Z,97718.22
2023-02-14T22:19:17.422Z,97718.97
2023-02-14T22:21:45.854Z,97719.88
2023-02-14T22:24:14.475Z,97715.78
2023-02-14T22:26:43.056Z,97721.09
2023-02-14T22:29:13.446Z,97718.38
2023-02-14T22:31:44.356Z,97715.78
2023-02-14T22:34:15.017Z,97721.09
2023-02-14T22:36:44.908Z,97717.06
2023-02-14T22:39:15.734Z,97716.31
2023-02-14T22:41:44.698Z,97711.28
2023-02-14T22:44:14.085Z,97719.38
2023-02-14T22:46:42.821Z,97724.44
2023-02-14T22:49:11.262Z,97714.31
2023-02-14T22:51:41.410Z,97708.50
2023-02-14T22:54:13.709Z,97708.44
2023-02-14T22:56:43.713Z,97710.28
2023-02-14T22:59:16.672Z,97704.97
2023-02-14T23:01:45.432Z,97699.66
2023-02-14T23:04:14.437Z,97695.06
2023-02-14T23:06:42.991Z,97695.94
2023-02-14T23:09:14.201Z,97693.22
2023-02-14T23:11:44.023Z,97690.59
2023-02-14T23:14:30.996Z,97687.16
2023-02-14T23:17:17.225Z,97695.75
2023-02-14T23:20:13.206Z,97682.66
2023-02-14T23:22:42.268Z,97678.47
2023-02-14T23:25:14.639Z,97683.47
2023-02-14T23:27:45.737Z,97694.97
2023-02-14T23:30:17.247Z,97690.66
2023-02-14T23:32:49.254Z,97686.72
2023-02-14T23:35:17.584Z,97682.19
2023-02-14T23:37:45.945Z,97681.63
2023-02-14T23:40:15.681Z,97684.34
2023-02-14T23:42:43.989Z,97679.81
2023-02-14T23:45:29.829Z,97685.59
2023-02-14T23:48:02.596Z,97683.50
2023-02-14T23:50:30.923Z,97677.28
2023-02-14T23:52:59.745Z,97680.97
2023-02-14T23:55:29.484Z,97672.81
2023-02-14T23:57:57.836Z,97666.31
